Chalican, Argentina
Current Conditions -  °F | °C
As of 11:00 AM on Tuesday 27 Jan 2015 (Local Time) from SASJ Reporting Station
Scattered Clouds Scattered Clouds  
Wind Chill: 84°   Ceiling: Unl
Heat Index: 86°   Visibility: 6mi
Dew Point: 64°   Wind: 6mph
Humidity: 51%   Direction: 90°E
Pressure: 29.91"   Gusts: NA
Location:  24°S, 64.8°W
Report Text: SASJ 271400Z 09005KT 9999 FEW035TCU SCT100 29/18 Q1013
Loading
Personal Weather Stations






























Interactive Weather Map New forecast layout! Learn more

10-Day Weather Forecast

Advertisements
Track Severe Weather on mobile